Overview Statistics Trail Chart Weather Telemetry Raw packets
 

This is the latest recevied weather packets stored in our database for station/object KI5NXU. If no packets are shown the sender has not sent any weather packets the latest 10 day(s).

<< 105 106 107 108 109 110 111 >>
Time Temp. Humidity Pressure Rain* Wind** Luminosity Snow
1787600500 42.78° C 25% 1013.2 hPa 0 mm - 691 W/m² -
1787600196 41.67° C 26% 1012.9 hPa 0 mm - 679 W/m² -
1787599888 41.67° C 26% 1013 hPa 0 mm - 669 W/m² -
1787599583 41.67° C 26% 1012.9 hPa 0 mm - 661 W/m² -
1787599281 41.11° C 27% 1013 hPa 0 mm - 632 W/m² -
1787598979 41.11° C 28% 1013.2 hPa 0 mm - 653 W/m² -
1787598675 41.11° C 26% 1013.2 hPa 0 mm - 642 W/m² -
1787598376 41.11° C 27% 1013.4 hPa 0 mm - 595 W/m² -
1787598072 41.11° C 27% 1013.2 hPa 0 mm - 568 W/m² -
1787597767 41.11° C 27% 1013.5 hPa 0 mm - 599 W/m² -
1787597466 40.56° C 27% 1013.3 hPa 0 mm - 608 W/m² -
1787597165 40.56° C 28% 1013.5 hPa 0 mm - 649 W/m² -
1787596861 41.11° C 28% 1013.6 hPa 0 mm - 668 W/m² -
1787596557 40° C 29% 1013.3 hPa 0 mm - 679 W/m² -
1787596252 40.56° C 29% 1013.7 hPa 0 mm - 685 W/m² -
1787595949 40° C 29% 1013.7 hPa 0 mm - 696 W/m² -
1787595643 40.56° C 30% 1013.5 hPa 0 mm - 727 W/m² -
1787595339 40.56° C 30% 1013.7 hPa 0 mm - 719 W/m² -
1787595038 40° C 29% 1013.8 hPa 0 mm - 697 W/m² -
1787594733 40° C 30% 1013.9 hPa 0 mm - 700 W/m² -
1787594433 40° C 31% 1013.8 hPa 0 mm - 723 W/m² -
1787594126 40° C 31% 1013.9 hPa 0 mm - 709 W/m² -
1787593822 40° C 30% 1014.1 hPa 0 mm - 723 W/m² -
1787593517 39.44° C 30% 1014 hPa 0 mm - 730 W/m² -
1787593213 39.44° C 31% 1014.1 hPa 0 mm - 743 W/m² -

* Rain latest hour (hover to see other rain measurements)
** Current wind speed in m/s (hover to see current wind gust speed)